Terminal Aerodrome Forecast
Issued by NWS

Home | Current Version | Previous Version | Text Only | Print | Product List | Glossary On
Versions: 1 2 3 4 5 6 7 8 9 10 11 12 13 14 15 16 17 18 19 20 21
000
FTUS41 KPBZ 202300
TAFBVI
TAF
KBVI 202320Z 2100/2124 20005KT P6SM -SHRA OVC050
      TEMPO 2100/2102 4SM -SHRA BR
     FM210200 22004KT 5SM -SHRA BKN025
     FM210400 22004KT 6SM BR VCSH OVC015
     FM210700 VRB04KT 5SM BR VCSH OVC008
     FM211600 29007KT P6SM -SHRA OVC025
     FM212100 30007KT P6SM -SHRA OVC035
      AMD NOT SKED 2101/2111=

USA.gov is the U.S. government's official web portal to all federal, state and local government web resources and services.